sensor_id;sensor_type;location;lat;lon;timestamp;temperature;humidity
71668;DHT22;59504;54.806;9.640;2024-03-22T00:01:09;8.20;81.90
71668;DHT22;59504;54.806;9.640;2024-03-22T00:03:10;8.20;82.00
71668;DHT22;59504;54.806;9.640;2024-03-22T00:05:12;8.30;82.00
71668;DHT22;59504;54.806;9.640;2024-03-22T00:07:12;8.20;81.70
71668;DHT22;59504;54.806;9.640;2024-03-22T00:09:13;8.20;81.70
71668;DHT22;59504;54.806;9.640;2024-03-22T00:11:34;8.30;81.60
71668;DHT22;59504;54.806;9.640;2024-03-22T00:13:34;8.40;81.80
71668;DHT22;59504;54.806;9.640;2024-03-22T00:15:55;8.30;81.80
71668;DHT22;59504;54.806;9.640;2024-03-22T00:18:15;8.30;82.00
71668;DHT22;59504;54.806;9.640;2024-03-22T00:20:36;8.30;82.00
71668;DHT22;59504;54.806;9.640;2024-03-22T00:22:57;8.30;82.00
71668;DHT22;59504;54.806;9.640;2024-03-22T00:25:17;8.30;81.90
71668;DHT22;59504;54.806;9.640;2024-03-22T00:27:38;8.30;82.00
71668;DHT22;59504;54.806;9.640;2024-03-22T00:29:58;8.30;81.90
71668;DHT22;59504;54.806;9.640;2024-03-22T00:32:19;8.30;81.90
71668;DHT22;59504;54.806;9.640;2024-03-22T00:34:39;8.30;82.00
71668;DHT22;59504;54.806;9.640;2024-03-22T00:37:00;8.30;81.90
71668;DHT22;59504;54.806;9.640;2024-03-22T00:39:21;8.40;82.10
71668;DHT22;59504;54.806;9.640;2024-03-22T00:41:42;8.30;81.90
71668;DHT22;59504;54.806;9.640;2024-03-22T00:44:02;8.30;82.10
71668;DHT22;59504;54.806;9.640;2024-03-22T00:46:23;8.30;82.20
71668;DHT22;59504;54.806;9.640;2024-03-22T00:48:43;8.30;82.40
71668;DHT22;59504;54.806;9.640;2024-03-22T00:51:04;8.30;82.10
71668;DHT22;59504;54.806;9.640;2024-03-22T00:53:24;8.30;82.10
71668;DHT22;59504;54.806;9.640;2024-03-22T00:55:45;8.30;82.00
71668;DHT22;59504;54.806;9.640;2024-03-22T00:58:06;8.30;82.50
71668;DHT22;59504;54.806;9.640;2024-03-22T01:00:27;8.40;82.80
71668;DHT22;59504;54.806;9.640;2024-03-22T01:02:47;8.30;83.40
71668;DHT22;59504;54.806;9.640;2024-03-22T01:05:08;8.30;82.50
71668;DHT22;59504;54.806;9.640;2024-03-22T01:07:28;8.40;82.50
71668;DHT22;59504;54.806;9.640;2024-03-22T01:09:49;8.40;82.50
71668;DHT22;59504;54.806;9.640;2024-03-22T01:12:10;8.40;82.60
71668;DHT22;59504;54.806;9.640;2024-03-22T01:14:30;8.40;82.60
71668;DHT22;59504;54.806;9.640;2024-03-22T01:16:51;8.40;82.40
71668;DHT22;59504;54.806;9.640;2024-03-22T01:19:12;8.40;82.70
71668;DHT22;59504;54.806;9.640;2024-03-22T01:21:32;8.40;82.70
71668;DHT22;59504;54.806;9.640;2024-03-22T01:23:53;8.40;82.60
71668;DHT22;59504;54.806;9.640;2024-03-22T01:26:13;8.40;82.60
71668;DHT22;59504;54.806;9.640;2024-03-22T01:28:34;8.40;82.60
71668;DHT22;59504;54.806;9.640;2024-03-22T01:30:55;8.50;82.60
71668;DHT22;59504;54.806;9.640;2024-03-22T01:33:15;8.40;82.40
71668;DHT22;59504;54.806;9.640;2024-03-22T01:35:36;8.50;82.50
71668;DHT22;59504;54.806;9.640;2024-03-22T01:37:56;8.50;83.20
71668;DHT22;59504;54.806;9.640;2024-03-22T01:40:17;8.50;82.50
71668;DHT22;59504;54.806;9.640;2024-03-22T01:42:37;8.50;82.40
71668;DHT22;59504;54.806;9.640;2024-03-22T01:44:58;8.50;82.70
71668;DHT22;59504;54.806;9.640;2024-03-22T01:47:18;8.50;82.70
71668;DHT22;59504;54.806;9.640;2024-03-22T01:49:19;8.50;82.50
71668;DHT22;59504;54.806;9.640;2024-03-22T01:51:20;8.60;82.70
71668;DHT22;59504;54.806;9.640;2024-03-22T01:53:20;8.50;82.80
71668;DHT22;59504;54.806;9.640;2024-03-22T01:55:22;8.50;82.70
71668;DHT22;59504;54.806;9.640;2024-03-22T01:57:23;8.50;82.70
71668;DHT22;59504;54.806;9.640;2024-03-22T01:59:43;8.50;82.70
71668;DHT22;59504;54.806;9.640;2024-03-22T02:01:44;8.50;82.80
71668;DHT22;59504;54.806;9.640;2024-03-22T02:04:05;8.50;82.80
71668;DHT22;59504;54.806;9.640;2024-03-22T02:06:26;8.60;82.80
71668;DHT22;59504;54.806;9.640;2024-03-22T02:08:27;8.60;82.80
71668;DHT22;59504;54.806;9.640;2024-03-22T02:10:47;8.60;82.80
71668;DHT22;59504;54.806;9.640;2024-03-22T02:13:08;8.60;82.90
71668;DHT22;59504;54.806;9.640;2024-03-22T02:15:28;8.60;83.10
71668;DHT22;59504;54.806;9.640;2024-03-22T02:17:49;8.60;83.00
71668;DHT22;59504;54.806;9.640;2024-03-22T02:20:09;8.60;83.10
71668;DHT22;59504;54.806;9.640;2024-03-22T02:22:23;8.60;83.00
71668;DHT22;59504;54.806;9.640;2024-03-22T02:24:44;8.60;83.30
71668;DHT22;59504;54.806;9.640;2024-03-22T02:27:04;8.60;83.40
71668;DHT22;59504;54.806;9.640;2024-03-22T02:29:25;8.70;83.30
71668;DHT22;59504;54.806;9.640;2024-03-22T02:31:45;8.60;83.30
71668;DHT22;59504;54.806;9.640;2024-03-22T02:34:06;8.60;83.40
71668;DHT22;59504;54.806;9.640;2024-03-22T02:36:26;8.70;83.40
71668;DHT22;59504;54.806;9.640;2024-03-22T02:38:47;8.70;83.30
71668;DHT22;59504;54.806;9.640;2024-03-22T02:40:57;8.70;83.30
71668;DHT22;59504;54.806;9.640;2024-03-22T02:42:59;8.70;83.40
71668;DHT22;59504;54.806;9.640;2024-03-22T02:45:20;8.70;83.50
71668;DHT22;59504;54.806;9.640;2024-03-22T02:47:20;8.70;83.50
71668;DHT22;59504;54.806;9.640;2024-03-22T02:49:21;8.80;83.70
71668;DHT22;59504;54.806;9.640;2024-03-22T02:51:21;8.80;83.70
71668;DHT22;59504;54.806;9.640;2024-03-22T02:53:22;8.80;83.50
71668;DHT22;59504;54.806;9.640;2024-03-22T02:55:23;8.70;83.60
71668;DHT22;59504;54.806;9.640;2024-03-22T02:57:23;8.70;83.60
71668;DHT22;59504;54.806;9.640;2024-03-22T02:59:27;8.80;83.70
71668;DHT22;59504;54.806;9.640;2024-03-22T03:01:27;8.80;83.90
71668;DHT22;59504;54.806;9.640;2024-03-22T03:03:28;8.80;84.10
71668;DHT22;59504;54.806;9.640;2024-03-22T03:05:29;8.80;83.90
71668;DHT22;59504;54.806;9.640;2024-03-22T03:07:29;8.80;84.00
71668;DHT22;59504;54.806;9.640;2024-03-22T03:09:30;8.80;84.00
71668;DHT22;59504;54.806;9.640;2024-03-22T03:11:31;8.90;84.00
71668;DHT22;59504;54.806;9.640;2024-03-22T03:13:31;8.80;83.90
71668;DHT22;59504;54.806;9.640;2024-03-22T03:15:32;8.80;84.00
71668;DHT22;59504;54.806;9.640;2024-03-22T03:17:33;8.90;84.10
71668;DHT22;59504;54.806;9.640;2024-03-22T03:19:33;8.90;84.10
71668;DHT22;59504;54.806;9.640;2024-03-22T03:21:34;8.90;84.00
71668;DHT22;59504;54.806;9.640;2024-03-22T03:23:34;8.80;84.00
71668;DHT22;59504;54.806;9.640;2024-03-22T03:25:35;8.80;84.20
71668;DHT22;59504;54.806;9.640;2024-03-22T03:27:36;8.80;84.10
71668;DHT22;59504;54.806;9.640;2024-03-22T03:29:36;8.80;84.00
71668;DHT22;59504;54.806;9.640;2024-03-22T03:31:37;8.90;84.20
71668;DHT22;59504;54.806;9.640;2024-03-22T03:33:38;8.90;84.20
71668;DHT22;59504;54.806;9.640;2024-03-22T03:35:38;8.80;84.20
71668;DHT22;59504;54.806;9.640;2024-03-22T03:37:39;8.90;84.20
71668;DHT22;59504;54.806;9.640;2024-03-22T03:39:39;8.90;84.30
71668;DHT22;59504;54.806;9.640;2024-03-22T03:41:40;8.90;84.30
71668;DHT22;59504;54.806;9.640;2024-03-22T03:43:41;8.90;84.40
71668;DHT22;59504;54.806;9.640;2024-03-22T03:45:41;8.90;84.40
71668;DHT22;59504;54.806;9.640;2024-03-22T03:47:42;8.80;84.40
71668;DHT22;59504;54.806;9.640;2024-03-22T03:49:44;8.90;84.50
71668;DHT22;59504;54.806;9.640;2024-03-22T03:51:45;8.90;84.50
71668;DHT22;59504;54.806;9.640;2024-03-22T03:53:45;8.90;85.30
71668;DHT22;59504;54.806;9.640;2024-03-22T03:55:46;8.90;84.90
71668;DHT22;59504;54.806;9.640;2024-03-22T03:57:46;8.80;85.00
71668;DHT22;59504;54.806;9.640;2024-03-22T03:59:47;8.90;85.00
71668;DHT22;59504;54.806;9.640;2024-03-22T04:01:47;8.90;85.00
71668;DHT22;59504;54.806;9.640;2024-03-22T04:03:51;8.80;85.00
71668;DHT22;59504;54.806;9.640;2024-03-22T04:05:58;8.80;84.90
71668;DHT22;59504;54.806;9.640;2024-03-22T04:07:59;8.80;84.80
71668;DHT22;59504;54.806;9.640;2024-03-22T04:09:59;8.90;85.00
71668;DHT22;59504;54.806;9.640;2024-03-22T04:12:03;8.80;84.70
71668;DHT22;59504;54.806;9.640;2024-03-22T04:14:24;8.80;84.80
71668;DHT22;59504;54.806;9.640;2024-03-22T04:16:44;8.80;84.90
71668;DHT22;59504;54.806;9.640;2024-03-22T04:18:48;8.90;85.00
71668;DHT22;59504;54.806;9.640;2024-03-22T04:21:09;8.90;85.00
71668;DHT22;59504;54.806;9.640;2024-03-22T04:23:29;8.90;85.10
71668;DHT22;59504;54.806;9.640;2024-03-22T04:25:40;8.90;85.00
71668;DHT22;59504;54.806;9.640;2024-03-22T04:28:00;8.90;85.00
71668;DHT22;59504;54.806;9.640;2024-03-22T04:30:21;9.00;85.10
71668;DHT22;59504;54.806;9.640;2024-03-22T04:32:41;8.90;85.10
71668;DHT22;59504;54.806;9.640;2024-03-22T04:35:02;8.80;85.30
71668;DHT22;59504;54.806;9.640;2024-03-22T04:37:23;8.90;85.50
71668;DHT22;59504;54.806;9.640;2024-03-22T04:39:45;9.00;85.40
71668;DHT22;59504;54.806;9.640;2024-03-22T04:42:06;8.90;85.30
71668;DHT22;59504;54.806;9.640;2024-03-22T04:44:26;8.90;85.20
71668;DHT22;59504;54.806;9.640;2024-03-22T04:46:47;8.80;85.30
71668;DHT22;59504;54.806;9.640;2024-03-22T04:49:08;8.90;85.40
71668;DHT22;59504;54.806;9.640;2024-03-22T04:51:28;8.90;85.40
71668;DHT22;59504;54.806;9.640;2024-03-22T04:53:49;8.90;85.40
71668;DHT22;59504;54.806;9.640;2024-03-22T04:56:09;9.00;85.70
71668;DHT22;59504;54.806;9.640;2024-03-22T04:58:30;9.00;85.70
71668;DHT22;59504;54.806;9.640;2024-03-22T05:00:55;9.00;85.60
71668;DHT22;59504;54.806;9.640;2024-03-22T05:03:16;8.90;85.60
71668;DHT22;59504;54.806;9.640;2024-03-22T05:05:37;8.90;85.70
71668;DHT22;59504;54.806;9.640;2024-03-22T05:07:58;8.90;86.10
71668;DHT22;59504;54.806;9.640;2024-03-22T05:10:18;8.90;86.00
71668;DHT22;59504;54.806;9.640;2024-03-22T05:12:39;9.00;86.00
71668;DHT22;59504;54.806;9.640;2024-03-22T05:15:00;9.00;85.90
71668;DHT22;59504;54.806;9.640;2024-03-22T05:17:20;8.90;85.80
71668;DHT22;59504;54.806;9.640;2024-03-22T05:19:43;8.90;85.80
71668;DHT22;59504;54.806;9.640;2024-03-22T05:22:04;8.90;85.70
71668;DHT22;59504;54.806;9.640;2024-03-22T05:24:04;8.90;85.80
71668;DHT22;59504;54.806;9.640;2024-03-22T05:26:05;8.90;85.80
71668;DHT22;59504;54.806;9.640;2024-03-22T05:28:06;9.00;85.90
71668;DHT22;59504;54.806;9.640;2024-03-22T05:30:06;8.90;85.90
71668;DHT22;59504;54.806;9.640;2024-03-22T05:32:07;8.90;85.80
71668;DHT22;59504;54.806;9.640;2024-03-22T05:34:08;9.00;85.90
71668;DHT22;59504;54.806;9.640;2024-03-22T05:36:08;9.00;86.00
71668;DHT22;59504;54.806;9.640;2024-03-22T05:38:09;9.00;85.90
71668;DHT22;59504;54.806;9.640;2024-03-22T05:40:10;8.90;85.80
71668;DHT22;59504;54.806;9.640;2024-03-22T05:42:11;9.00;85.90
71668;DHT22;59504;54.806;9.640;2024-03-22T05:44:11;8.90;85.80
71668;DHT22;59504;54.806;9.640;2024-03-22T05:46:12;9.00;85.90
71668;DHT22;59504;54.806;9.640;2024-03-22T05:48:13;9.00;86.00
71668;DHT22;59504;54.806;9.640;2024-03-22T05:50:13;9.00;86.00
71668;DHT22;59504;54.806;9.640;2024-03-22T05:52:14;9.00;86.00
71668;DHT22;59504;54.806;9.640;2024-03-22T05:54:16;9.00;85.90
71668;DHT22;59504;54.806;9.640;2024-03-22T05:56:17;8.90;85.90
71668;DHT22;59504;54.806;9.640;2024-03-22T05:58:17;9.00;86.20
71668;DHT22;59504;54.806;9.640;2024-03-22T06:00:18;9.00;86.20
71668;DHT22;59504;54.806;9.640;2024-03-22T06:02:19;9.00;86.40
71668;DHT22;59504;54.806;9.640;2024-03-22T06:04:19;9.00;86.30
71668;DHT22;59504;54.806;9.640;2024-03-22T06:06:25;9.00;86.50
71668;DHT22;59504;54.806;9.640;2024-03-22T06:08:29;8.90;86.30
71668;DHT22;59504;54.806;9.640;2024-03-22T06:10:32;9.00;86.40
71668;DHT22;59504;54.806;9.640;2024-03-22T06:12:32;8.90;86.20
71668;DHT22;59504;54.806;9.640;2024-03-22T06:14:33;9.00;86.20
71668;DHT22;59504;54.806;9.640;2024-03-22T06:16:34;9.00;86.10
71668;DHT22;59504;54.806;9.640;2024-03-22T06:18:54;8.90;86.10
71668;DHT22;59504;54.806;9.640;2024-03-22T06:21:11;9.00;86.30
71668;DHT22;59504;54.806;9.640;2024-03-22T06:23:34;9.00;86.30
71668;DHT22;59504;54.806;9.640;2024-03-22T06:25:55;9.10;86.20
71668;DHT22;59504;54.806;9.640;2024-03-22T06:28:16;9.10;86.10
71668;DHT22;59504;54.806;9.640;2024-03-22T06:30:36;9.10;86.10
71668;DHT22;59504;54.806;9.640;2024-03-22T06:32:57;9.00;86.40
71668;DHT22;59504;54.806;9.640;2024-03-22T06:35:18;9.00;86.30
71668;DHT22;59504;54.806;9.640;2024-03-22T06:37:39;9.10;86.30
71668;DHT22;59504;54.806;9.640;2024-03-22T06:40:00;9.10;86.20
71668;DHT22;59504;54.806;9.640;2024-03-22T06:42:20;9.10;86.20
71668;DHT22;59504;54.806;9.640;2024-03-22T06:44:41;9.00;86.20
71668;DHT22;59504;54.806;9.640;2024-03-22T06:47:02;9.10;86.40
71668;DHT22;59504;54.806;9.640;2024-03-22T06:49:22;9.10;86.40
71668;DHT22;59504;54.806;9.640;2024-03-22T06:51:43;9.20;86.50
71668;DHT22;59504;54.806;9.640;2024-03-22T06:54:03;9.10;86.50
71668;DHT22;59504;54.806;9.640;2024-03-22T06:56:24;9.00;87.20
71668;DHT22;59504;54.806;9.640;2024-03-22T06:58:44;9.20;86.60
71668;DHT22;59504;54.806;9.640;2024-03-22T07:01:05;9.20;86.50
71668;DHT22;59504;54.806;9.640;2024-03-22T07:03:25;9.10;86.60
71668;DHT22;59504;54.806;9.640;2024-03-22T07:05:49;9.10;86.70
71668;DHT22;59504;54.806;9.640;2024-03-22T07:08:09;9.10;86.90
71668;DHT22;59504;54.806;9.640;2024-03-22T07:10:30;9.10;86.90
71668;DHT22;59504;54.806;9.640;2024-03-22T07:12:51;9.10;87.10
71668;DHT22;59504;54.806;9.640;2024-03-22T07:15:12;9.10;87.50
71668;DHT22;59504;54.806;9.640;2024-03-22T07:17:32;9.20;87.30
71668;DHT22;59504;54.806;9.640;2024-03-22T07:19:53;9.20;87.20
71668;DHT22;59504;54.806;9.640;2024-03-22T07:22:14;9.20;87.10
71668;DHT22;59504;54.806;9.640;2024-03-22T07:24:34;9.10;87.00
71668;DHT22;59504;54.806;9.640;2024-03-22T07:26:55;9.10;86.80
71668;DHT22;59504;54.806;9.640;2024-03-22T07:29:16;9.10;86.90
71668;DHT22;59504;54.806;9.640;2024-03-22T07:31:36;9.10;87.00
71668;DHT22;59504;54.806;9.640;2024-03-22T07:33:57;9.20;87.10
71668;DHT22;59504;54.806;9.640;2024-03-22T07:36:17;9.20;87.10
71668;DHT22;59504;54.806;9.640;2024-03-22T07:38:38;9.10;87.10
71668;DHT22;59504;54.806;9.640;2024-03-22T07:40:57;9.10;87.20
71668;DHT22;59504;54.806;9.640;2024-03-22T07:43:16;9.20;87.30
71668;DHT22;59504;54.806;9.640;2024-03-22T07:45:35;9.10;87.30
71668;DHT22;59504;54.806;9.640;2024-03-22T07:47:55;9.20;87.30
71668;DHT22;59504;54.806;9.640;2024-03-22T07:50:14;9.20;87.80
71668;DHT22;59504;54.806;9.640;2024-03-22T07:52:33;9.10;87.80
71668;DHT22;59504;54.806;9.640;2024-03-22T07:54:52;9.10;87.50
71668;DHT22;59504;54.806;9.640;2024-03-22T07:57:11;9.20;88.40
71668;DHT22;59504;54.806;9.640;2024-03-22T07:59:31;9.10;87.50
71668;DHT22;59504;54.806;9.640;2024-03-22T08:01:51;9.20;88.30
71668;DHT22;59504;54.806;9.640;2024-03-22T08:04:10;9.20;87.50
71668;DHT22;59504;54.806;9.640;2024-03-22T08:06:31;9.20;87.50
71668;DHT22;59504;54.806;9.640;2024-03-22T08:08:51;9.20;87.70
71668;DHT22;59504;54.806;9.640;2024-03-22T08:11:12;9.20;87.40
71668;DHT22;59504;54.806;9.640;2024-03-22T08:13:32;9.30;87.80
71668;DHT22;59504;54.806;9.640;2024-03-22T08:15:53;9.20;87.80
71668;DHT22;59504;54.806;9.640;2024-03-22T08:18:14;9.20;87.70
71668;DHT22;59504;54.806;9.640;2024-03-22T08:20:34;9.30;87.90
71668;DHT22;59504;54.806;9.640;2024-03-22T08:22:55;9.40;87.90
71668;DHT22;59504;54.806;9.640;2024-03-22T08:25:15;9.40;87.90
71668;DHT22;59504;54.806;9.640;2024-03-22T08:27:37;9.30;87.90
71668;DHT22;59504;54.806;9.640;2024-03-22T08:29:58;9.30;87.60
71668;DHT22;59504;54.806;9.640;2024-03-22T08:32:19;9.30;87.60
71668;DHT22;59504;54.806;9.640;2024-03-22T08:34:39;9.30;87.60
71668;DHT22;59504;54.806;9.640;2024-03-22T08:37:00;9.40;87.70
71668;DHT22;59504;54.806;9.640;2024-03-22T08:39:20;9.40;87.80
71668;DHT22;59504;54.806;9.640;2024-03-22T08:41:41;9.40;87.90
71668;DHT22;59504;54.806;9.640;2024-03-22T08:44:02;9.40;87.70
71668;DHT22;59504;54.806;9.640;2024-03-22T08:46:22;9.40;87.70
71668;DHT22;59504;54.806;9.640;2024-03-22T08:48:45;9.40;87.70
71668;DHT22;59504;54.806;9.640;2024-03-22T08:51:05;9.50;87.70
71668;DHT22;59504;54.806;9.640;2024-03-22T08:53:26;9.50;88.00
71668;DHT22;59504;54.806;9.640;2024-03-22T08:55:46;9.60;88.00
71668;DHT22;59504;54.806;9.640;2024-03-22T08:58:06;9.50;87.80
71668;DHT22;59504;54.806;9.640;2024-03-22T09:00:25;9.60;87.90
71668;DHT22;59504;54.806;9.640;2024-03-22T09:02:45;9.60;87.90
71668;DHT22;59504;54.806;9.640;2024-03-22T09:05:05;9.70;87.80
71668;DHT22;59504;54.806;9.640;2024-03-22T09:07:25;9.60;87.70
71668;DHT22;59504;54.806;9.640;2024-03-22T09:09:44;9.60;87.90
71668;DHT22;59504;54.806;9.640;2024-03-22T09:12:03;9.60;88.70
71668;DHT22;59504;54.806;9.640;2024-03-22T09:14:22;9.60;87.80
71668;DHT22;59504;54.806;9.640;2024-03-22T09:16:42;9.70;88.40
71668;DHT22;59504;54.806;9.640;2024-03-22T09:19:01;9.70;87.50
71668;DHT22;59504;54.806;9.640;2024-03-22T09:21:20;9.60;87.40
71668;DHT22;59504;54.806;9.640;2024-03-22T09:23:40;9.60;87.60
71668;DHT22;59504;54.806;9.640;2024-03-22T09:25:59;9.60;87.60
71668;DHT22;59504;54.806;9.640;2024-03-22T09:28:18;9.60;87.40
71668;DHT22;59504;54.806;9.640;2024-03-22T09:30:38;9.60;87.60
71668;DHT22;59504;54.806;9.640;2024-03-22T09:32:57;9.70;87.40
71668;DHT22;59504;54.806;9.640;2024-03-22T09:35:16;9.60;87.60
71668;DHT22;59504;54.806;9.640;2024-03-22T09:37:36;9.70;87.50
71668;DHT22;59504;54.806;9.640;2024-03-22T09:39:55;9.60;87.20
71668;DHT22;59504;54.806;9.640;2024-03-22T09:42:18;9.70;88.00
71668;DHT22;59504;54.806;9.640;2024-03-22T09:44:37;9.60;87.80
71668;DHT22;59504;54.806;9.640;2024-03-22T09:46:59;9.60;87.70
71668;DHT22;59504;54.806;9.640;2024-03-22T09:49:18;9.60;87.60
71668;DHT22;59504;54.806;9.640;2024-03-22T09:51:37;9.70;87.00
71668;DHT22;59504;54.806;9.640;2024-03-22T09:53:57;9.70;86.90
71668;DHT22;59504;54.806;9.640;2024-03-22T09:56:16;9.60;87.50
71668;DHT22;59504;54.806;9.640;2024-03-22T09:58:37;9.70;86.90
71668;DHT22;59504;54.806;9.640;2024-03-22T10:00:57;9.60;87.00
71668;DHT22;59504;54.806;9.640;2024-03-22T10:03:19;9.60;87.20
71668;DHT22;59504;54.806;9.640;2024-03-22T10:05:38;9.50;86.90
71668;DHT22;59504;54.806;9.640;2024-03-22T10:07:57;9.50;86.80
71668;DHT22;59504;54.806;9.640;2024-03-22T10:10:17;9.60;87.20
71668;DHT22;59504;54.806;9.640;2024-03-22T10:12:36;9.60;87.00
71668;DHT22;59504;54.806;9.640;2024-03-22T10:14:56;9.60;87.10
71668;DHT22;59504;54.806;9.640;2024-03-22T10:17:15;9.60;87.30
71668;DHT22;59504;54.806;9.640;2024-03-22T10:19:34;9.60;87.40
71668;DHT22;59504;54.806;9.640;2024-03-22T10:22:00;9.60;87.60
71668;DHT22;59504;54.806;9.640;2024-03-22T10:24:19;9.60;87.40
71668;DHT22;59504;54.806;9.640;2024-03-22T10:26:39;9.60;87.40
71668;DHT22;59504;54.806;9.640;2024-03-22T10:28:58;9.60;87.10
71668;DHT22;59504;54.806;9.640;2024-03-22T10:31:17;9.60;87.20
71668;DHT22;59504;54.806;9.640;2024-03-22T10:33:38;9.80;87.30
71668;DHT22;59504;54.806;9.640;2024-03-22T10:35:59;9.70;87.30
71668;DHT22;59504;54.806;9.640;2024-03-22T10:38:19;9.60;87.80
71668;DHT22;59504;54.806;9.640;2024-03-22T10:40:39;9.70;87.90
71668;DHT22;59504;54.806;9.640;2024-03-22T10:42:58;9.60;87.70
71668;DHT22;59504;54.806;9.640;2024-03-22T10:45:17;9.70;87.60
71668;DHT22;59504;54.806;9.640;2024-03-22T10:47:37;9.60;88.20
71668;DHT22;59504;54.806;9.640;2024-03-22T10:50:06;9.70;87.90
71668;DHT22;59504;54.806;9.640;2024-03-22T10:52:25;9.60;88.00
71668;DHT22;59504;54.806;9.640;2024-03-22T10:54:45;9.60;88.80
71668;DHT22;59504;54.806;9.640;2024-03-22T10:57:05;9.60;88.00
71668;DHT22;59504;54.806;9.640;2024-03-22T10:59:26;9.70;88.00
71668;DHT22;59504;54.806;9.640;2024-03-22T11:01:45;9.70;88.00
71668;DHT22;59504;54.806;9.640;2024-03-22T11:04:05;9.70;88.00
71668;DHT22;59504;54.806;9.640;2024-03-22T11:06:26;9.60;88.00
71668;DHT22;59504;54.806;9.640;2024-03-22T11:08:49;9.60;87.90
71668;DHT22;59504;54.806;9.640;2024-03-22T11:11:09;9.70;88.00
71668;DHT22;59504;54.806;9.640;2024-03-22T11:13:29;9.60;88.00
71668;DHT22;59504;54.806;9.640;2024-03-22T11:15:48;9.70;88.00
71668;DHT22;59504;54.806;9.640;2024-03-22T11:18:08;9.60;87.90
71668;DHT22;59504;54.806;9.640;2024-03-22T11:20:27;9.60;88.60
71668;DHT22;59504;54.806;9.640;2024-03-22T11:22:59;9.60;88.50
71668;DHT22;59504;54.806;9.640;2024-03-22T11:25:22;9.60;88.50
71668;DHT22;59504;54.806;9.640;2024-03-22T11:30:29;9.60;87.70
71668;DHT22;59504;54.806;9.640;2024-03-22T11:32:48;9.60;87.80
71668;DHT22;59504;54.806;9.640;2024-03-22T11:35:11;9.60;88.40
71668;DHT22;59504;54.806;9.640;2024-03-22T11:37:30;9.60;87.80
71668;DHT22;59504;54.806;9.640;2024-03-22T11:39:50;9.60;88.60
71668;DHT22;59504;54.806;9.640;2024-03-22T11:42:09;9.70;87.90
71668;DHT22;59504;54.806;9.640;2024-03-22T11:44:29;9.70;87.90
71668;DHT22;59504;54.806;9.640;2024-03-22T11:46:49;9.70;87.90
71668;DHT22;59504;54.806;9.640;2024-03-22T11:49:08;9.70;88.00
71668;DHT22;59504;54.806;9.640;2024-03-22T11:51:28;9.80;87.80
71668;DHT22;59504;54.806;9.640;2024-03-22T11:56:34;9.70;87.50
71668;DHT22;59504;54.806;9.640;2024-03-22T11:59:02;9.70;87.10
71668;DHT22;59504;54.806;9.640;2024-03-22T12:01:24;9.80;86.90
71668;DHT22;59504;54.806;9.640;2024-03-22T12:03:44;9.70;86.40
71668;DHT22;59504;54.806;9.640;2024-03-22T12:06:03;9.80;86.30
71668;DHT22;59504;54.806;9.640;2024-03-22T12:08:22;9.70;86.10
71668;DHT22;59504;54.806;9.640;2024-03-22T12:10:42;9.60;85.80
71668;DHT22;59504;54.806;9.640;2024-03-22T12:13:01;9.70;86.70
71668;DHT22;59504;54.806;9.640;2024-03-22T12:15:20;9.70;86.60
71668;DHT22;59504;54.806;9.640;2024-03-22T12:17:39;9.60;86.00
71668;DHT22;59504;54.806;9.640;2024-03-22T12:20:02;9.60;86.10
71668;DHT22;59504;54.806;9.640;2024-03-22T12:22:22;9.60;86.00
71668;DHT22;59504;54.806;9.640;2024-03-22T12:24:44;9.60;85.80
71668;DHT22;59504;54.806;9.640;2024-03-22T12:27:03;9.60;86.60
71668;DHT22;59504;54.806;9.640;2024-03-22T12:29:23;9.60;85.60
71668;DHT22;59504;54.806;9.640;2024-03-22T12:31:42;9.60;85.50
71668;DHT22;59504;54.806;9.640;2024-03-22T12:34:01;9.60;85.60
71668;DHT22;59504;54.806;9.640;2024-03-22T12:36:21;9.60;85.40
71668;DHT22;59504;54.806;9.640;2024-03-22T12:38:40;9.60;85.10
71668;DHT22;59504;54.806;9.640;2024-03-22T12:40:59;9.60;85.10
71668;DHT22;59504;54.806;9.640;2024-03-22T12:43:19;9.60;85.00
71668;DHT22;59504;54.806;9.640;2024-03-22T12:45:38;9.60;85.20
71668;DHT22;59504;54.806;9.640;2024-03-22T12:47:58;9.60;85.20
71668;DHT22;59504;54.806;9.640;2024-03-22T12:50:18;9.70;85.50
71668;DHT22;59504;54.806;9.640;2024-03-22T12:52:37;9.60;85.50
71668;DHT22;59504;54.806;9.640;2024-03-22T12:54:56;9.70;85.40
71668;DHT22;59504;54.806;9.640;2024-03-22T12:57:15;9.70;86.10
71668;DHT22;59504;54.806;9.640;2024-03-22T12:59:34;9.70;85.90
71668;DHT22;59504;54.806;9.640;2024-03-22T13:01:54;9.70;85.10
71668;DHT22;59504;54.806;9.640;2024-03-22T13:04:13;9.80;85.50
71668;DHT22;59504;54.806;9.640;2024-03-22T13:06:29;9.80;85.00
71668;DHT22;59504;54.806;9.640;2024-03-22T13:08:49;9.90;84.90
71668;DHT22;59504;54.806;9.640;2024-03-22T13:11:08;9.90;84.40
71668;DHT22;59504;54.806;9.640;2024-03-22T13:13:30;9.90;84.20
71668;DHT22;59504;54.806;9.640;2024-03-22T13:15:49;10.10;83.70
71668;DHT22;59504;54.806;9.640;2024-03-22T13:18:09;10.00;84.10
71668;DHT22;59504;54.806;9.640;2024-03-22T13:20:28;10.20;83.50
71668;DHT22;59504;54.806;9.640;2024-03-22T13:22:47;10.10;83.10
71668;DHT22;59504;54.806;9.640;2024-03-22T13:25:06;10.10;83.00
71668;DHT22;59504;54.806;9.640;2024-03-22T13:27:27;10.10;82.80
71668;DHT22;59504;54.806;9.640;2024-03-22T13:29:47;10.10;82.50
71668;DHT22;59504;54.806;9.640;2024-03-22T13:32:06;10.20;82.50
71668;DHT22;59504;54.806;9.640;2024-03-22T13:34:28;10.20;82.90
71668;DHT22;59504;54.806;9.640;2024-03-22T13:36:48;10.30;81.90
71668;DHT22;59504;54.806;9.640;2024-03-22T13:39:07;10.20;80.40
71668;DHT22;59504;54.806;9.640;2024-03-22T13:41:10;10.20;81.10
71668;DHT22;59504;54.806;9.640;2024-03-22T13:43:11;10.30;79.70
71668;DHT22;59504;54.806;9.640;2024-03-22T13:45:11;10.20;78.90
71668;DHT22;59504;54.806;9.640;2024-03-22T13:47:12;10.20;80.10
71668;DHT22;59504;54.806;9.640;2024-03-22T13:49:14;10.20;79.00
71668;DHT22;59504;54.806;9.640;2024-03-22T13:51:17;10.20;79.00
71668;DHT22;59504;54.806;9.640;2024-03-22T13:53:18;10.20;78.60
71668;DHT22;59504;54.806;9.640;2024-03-22T13:55:19;10.20;78.40
71668;DHT22;59504;54.806;9.640;2024-03-22T13:57:21;10.20;77.40
71668;DHT22;59504;54.806;9.640;2024-03-22T13:59:42;10.20;77.60
71668;DHT22;59504;54.806;9.640;2024-03-22T14:02:02;10.30;77.60
71668;DHT22;59504;54.806;9.640;2024-03-22T14:04:23;10.20;77.70
71668;DHT22;59504;54.806;9.640;2024-03-22T14:06:46;10.30;77.70
71668;DHT22;59504;54.806;9.640;2024-03-22T14:08:47;10.30;77.30
71668;DHT22;59504;54.806;9.640;2024-03-22T14:11:07;10.40;77.60
71668;DHT22;59504;54.806;9.640;2024-03-22T14:13:28;10.40;77.70
71668;DHT22;59504;54.806;9.640;2024-03-22T14:15:48;10.30;77.60
71668;DHT22;59504;54.806;9.640;2024-03-22T14:18:09;10.40;77.40
71668;DHT22;59504;54.806;9.640;2024-03-22T14:20:30;10.40;77.60
71668;DHT22;59504;54.806;9.640;2024-03-22T14:22:51;10.40;76.80
71668;DHT22;59504;54.806;9.640;2024-03-22T14:25:11;10.50;76.60
71668;DHT22;59504;54.806;9.640;2024-03-22T14:27:32;10.50;76.30
71668;DHT22;59504;54.806;9.640;2024-03-22T14:29:53;10.40;76.50
71668;DHT22;59504;54.806;9.640;2024-03-22T14:32:13;10.40;75.00
71668;DHT22;59504;54.806;9.640;2024-03-22T14:34:34;10.40;74.70